Time;durP1;ratioP1;P1;durP2;ratioP2;P2;SDS_P1;SDS_P2;PMS_P1;PMS_P2;Temp;Humidity;BMP_temperature;BMP_pressure;BME280_temperature;BME280_humidity;BME280_pressure;Samples;Min_cycle;Max_cycle;Signal;HPM_P1;HPM_P2
2024/01/31 00:00:59;;;;;;;3.33;0.88;;;6.90;91.40;;;;;;4997325;28;20046;-89
2024/01/31 00:03:25;;;;;;;2.15;0.50;;;7.00;91.40;;;;;;4997050;28;20497;-87
2024/01/31 00:05:51;;;;;;;3.15;0.90;;;6.90;91.40;;;;;;4989355;28;20042;-87
2024/01/31 00:08:16;;;;;;;3.05;1.05;;;7.70;91.60;;;;;;5013012;28;20065;-87
2024/01/31 00:10:42;;;;;;;4.13;0.68;;;6.80;91.40;;;;;;5000665;28;20080;-86
2024/01/31 00:13:08;;;;;;;5.30;1.20;;;6.80;91.30;;;;;;5022726;28;20368;-86
2024/01/31 00:15:33;;;;;;;3.03;0.75;;;6.80;91.30;;;;;;4998857;28;20074;-87
2024/01/31 00:17:59;;;;;;;3.05;0.60;;;6.80;91.30;;;;;;5016451;28;20022;-87
2024/01/31 00:20:25;;;;;;;2.47;0.85;;;6.90;91.30;;;;;;5001155;28;20037;-88
2024/01/31 00:22:50;;;;;;;4.30;0.70;;;6.90;91.30;;;;;;5006106;28;20038;-87
2024/01/31 00:25:16;;;;;;;3.30;0.70;;;6.80;91.30;;;;;;4998851;28;20132;-88
2024/01/31 00:27:41;;;;;;;3.08;0.88;;;6.80;91.30;;;;;;4991521;28;20043;-87
2024/01/31 00:30:10;;;;;;;5.90;0.80;;;6.90;91.30;;;;;;5002178;28;20047;-87
2024/01/31 00:32:35;;;;;;;7.75;0.98;;;6.80;91.30;;;;;;4980175;28;20034;-88
2024/01/31 00:35:02;;;;;;;4.10;0.57;;;6.80;91.30;;;;;;4989013;28;20045;-87
2024/01/31 00:37:27;;;;;;;5.25;0.90;;;6.70;91.20;;;;;;4992085;28;20429;-87
2024/01/31 00:39:53;;;;;;;4.45;0.80;;;6.70;91.20;;;;;;5027504;28;20085;-88
2024/01/31 00:42:19;;;;;;;4.78;0.70;;;7.10;91.30;;;;;;5007857;28;20046;-87
2024/01/31 00:44:44;;;;;;;1.90;0.85;;;6.70;91.20;;;;;;5003872;28;20101;-87
2024/01/31 00:47:10;;;;;;;4.28;1.20;;;7.10;91.30;;;;;;5007683;28;20045;-87
2024/01/31 00:49:36;;;;;;;8.48;0.95;;;6.60;91.20;;;;;;4982662;28;20061;-87
2024/01/31 00:52:01;;;;;;;2.28;0.55;;;6.60;91.20;;;;;;4989680;28;20034;-89
2024/01/31 00:54:27;;;;;;;3.30;0.50;;;6.60;91.30;;;;;;4981872;28;20050;-89
2024/01/31 00:56:52;;;;;;;7.90;1.13;;;6.60;91.30;;;;;;5009159;28;20492;-89
2024/01/31 00:59:18;;;;;;;2.90;0.52;;;6.60;91.40;;;;;;5003152;28;20057;-89
2024/01/31 01:01:44;;;;;;;4.10;1.15;;;6.60;91.40;;;;;;5011097;28;20045;-89
2024/01/31 01:04:10;;;;;;;3.70;0.82;;;6.60;91.50;;;;;;4990388;28;20038;-89
2024/01/31 01:06:35;;;;;;;3.30;0.63;;;6.60;91.50;;;;;;4998660;28;20040;-88
2024/01/31 01:09:01;;;;;;;4.82;0.63;;;6.60;91.50;;;;;;4986008;28;20040;-89
2024/01/31 01:11:29;;;;;;;4.93;0.60;;;6.60;91.50;;;;;;4994810;28;20042;-89
2024/01/31 01:13:55;;;;;;;2.13;0.40;;;6.60;91.50;;;;;;4999767;28;20392;-89
2024/01/31 01:16:20;;;;;;;4.68;0.95;;;6.60;91.50;;;;;;4998112;28;20045;-89
2024/01/31 01:18:46;;;;;;;2.58;0.60;;;6.60;91.50;;;;;;4992691;28;20044;-89
2024/01/31 01:21:12;;;;;;;3.53;0.70;;;6.60;91.50;;;;;;4991319;28;20095;-89
2024/01/31 01:23:38;;;;;;;2.97;0.70;;;6.60;91.50;;;;;;4989900;28;20034;-85
2024/01/31 01:26:03;;;;;;;2.63;0.70;;;6.60;91.50;;;;;;5020095;28;20042;-85
2024/01/31 01:28:29;;;;;;;3.22;0.63;;;6.60;91.50;;;;;;4999585;28;20405;-86
2024/01/31 01:30:55;;;;;;;3.95;0.80;;;6.60;91.50;;;;;;5006515;28;20045;-87
2024/01/31 01:33:20;;;;;;;3.55;0.77;;;6.60;91.50;;;;;;5000941;28;20116;-86
2024/01/31 01:35:46;;;;;;;2.72;0.50;;;6.60;91.40;;;;;;5006568;28;20065;-86
2024/01/31 01:38:11;;;;;;;3.08;0.63;;;6.90;91.50;;;;;;5008089;28;20054;-86
2024/01/31 01:40:43;;;;;;;3.58;0.57;;;6.60;91.40;;;;;;5003341;28;20440;-89
2024/01/31 01:43:19;;;;;;;2.33;0.88;;;6.60;91.40;;;;;;4985470;28;20068;-88
2024/01/31 01:45:45;;;;;;;2.47;0.63;;;6.60;91.40;;;;;;5002631;28;20497;-88
2024/01/31 01:48:18;;;;;;;4.55;0.77;;;6.60;91.40;;;;;;5006325;28;20362;-88
2024/01/31 01:50:44;;;;;;;2.58;0.90;;;6.60;91.40;;;;;;5020751;28;20034;-88
2024/01/31 01:53:10;;;;;;;2.50;0.60;;;6.60;91.40;;;;;;5012050;28;20168;-88
2024/01/31 01:55:38;;;;;;;2.67;0.55;;;6.50;91.30;;;;;;4998273;28;20065;-87
2024/01/31 01:58:04;;;;;;;3.03;0.88;;;6.50;91.40;;;;;;4989716;28;20029;-88
2024/01/31 02:00:32;;;;;;;2.78;0.73;;;6.50;91.30;;;;;;5020448;28;20060;-88
2024/01/31 02:02:58;;;;;;;2.63;1.45;;;6.50;91.30;;;;;;5006818;28;20397;-88
2024/01/31 02:05:24;;;;;;;2.38;1.23;;;6.60;91.40;;;;;;4982733;28;20038;-88
2024/01/31 02:07:49;;;;;;;3.17;0.50;;;7.10;91.50;;;;;;4992655;28;20052;-89
2024/01/31 02:10:15;;;;;;;0.35;0.28;;;6.50;91.30;;;;;;5001299;28;20038;-89
2024/01/31 02:12:41;;;;;;;4.05;0.70;;;6.50;91.30;;;;;;4995885;28;20378;-87
2024/01/31 02:15:07;;;;;;;2.90;0.50;;;6.50;91.30;;;;;;5004750;28;20041;-87
2024/01/31 02:17:33;;;;;;;2.65;0.55;;;6.50;91.30;;;;;;5002082;28;20050;-87
2024/01/31 02:19:59;;;;;;;4.13;0.88;;;6.50;91.30;;;;;;4984252;28;20037;-87
2024/01/31 02:22:24;;;;;;;2.67;0.50;;;6.50;91.30;;;;;;4979711;28;20042;-87
2024/01/31 02:24:50;;;;;;;11.10;2.03;;;6.50;91.30;;;;;;4999379;28;20033;-88
2024/01/31 02:27:16;;;;;;;3.00;0.70;;;6.50;91.30;;;;;;5002813;28;20042;-89
2024/01/31 02:29:41;;;;;;;4.45;0.95;;;6.50;91.30;;;;;;4997553;28;20035;-89
2024/01/31 02:32:07;;;;;;;4.13;0.73;;;6.50;91.30;;;;;;5002898;28;20034;-89
2024/01/31 02:34:33;;;;;;;4.97;0.90;;;6.50;91.30;;;;;;4984235;28;20039;-89
2024/01/31 02:36:58;;;;;;;2.10;0.50;;;6.50;91.20;;;;;;5000085;28;20049;-89
2024/01/31 02:39:24;;;;;;;4.25;0.80;;;6.50;91.20;;;;;;4996006;28;20455;-89
2024/01/31 02:41:52;;;;;;;4.38;0.95;;;6.50;91.30;;;;;;4980721;28;20042;-89
2024/01/31 02:44:18;;;;;;;3.53;1.35;;;6.50;91.20;;;;;;5018757;28;20381;-89
2024/01/31 02:46:44;;;;;;;2.70;0.93;;;6.50;91.20;;;;;;5004226;28;20089;-89
2024/01/31 02:49:09;;;;;;;5.18;0.93;;;6.50;91.20;;;;;;4987395;28;20042;-89
2024/01/31 02:51:35;;;;;;;3.90;0.90;;;6.50;91.20;;;;;;5000076;28;20489;-89
2024/01/31 02:54:01;;;;;;;3.83;0.60;;;6.50;91.20;;;;;;5005576;28;20042;-89
2024/01/31 02:56:26;;;;;;;4.65;0.80;;;6.60;91.20;;;;;;4981050;28;20038;-88
2024/01/31 02:58:52;;;;;;;4.53;0.63;;;6.50;91.20;;;;;;4997313;28;20034;-87
2024/01/31 03:01:18;;;;;;;3.05;0.70;;;6.50;91.20;;;;;;4978189;28;20069;-89
2024/01/31 03:03:43;;;;;;;4.43;0.70;;;6.50;91.10;;;;;;5002054;28;20078;-89
2024/01/31 03:06:09;;;;;;;2.10;0.40;;;6.50;91.10;;;;;;5005043;28;20034;-89
2024/01/31 03:08:34;;;;;;;4.10;0.73;;;6.50;91.10;;;;;;4992935;28;20125;-89
2024/01/31 03:11:00;;;;;;;5.38;0.70;;;6.50;91.10;;;;;;5004109;28;20033;-89
2024/01/31 03:13:25;;;;;;;3.60;0.85;;;6.40;91.10;;;;;;4996124;28;20034;-89
2024/01/31 03:15:51;;;;;;;2.95;0.70;;;6.50;91.10;;;;;;5002302;28;20510;-89
2024/01/31 03:18:17;;;;;;;2.95;0.68;;;6.50;91.20;;;;;;5001280;28;20042;-87
2024/01/31 03:20:42;;;;;;;2.30;0.50;;;6.50;91.10;;;;;;5016947;28;20038;-87
2024/01/31 03:23:08;;;;;;;2.13;0.60;;;6.50;91.10;;;;;;5002202;28;20088;-87
2024/01/31 03:25:34;;;;;;;2.00;0.40;;;7.00;91.30;;;;;;5016415;28;20046;-87
2024/01/31 03:28:00;;;;;;;3.70;0.50;;;6.50;91.10;;;;;;5010387;28;20489;-88
2024/01/31 03:30:25;;;;;;;2.70;0.45;;;6.40;90.90;;;;;;5010137;28;20115;-89
2024/01/31 03:32:51;;;;;;;1.90;0.60;;;6.40;90.90;;;;;;4997386;28;20049;-89
2024/01/31 03:35:16;;;;;;;5.18;0.77;;;6.40;90.90;;;;;;4997922;28;20571;-89
2024/01/31 03:37:44;;;;;;;4.22;0.63;;;6.40;90.90;;;;;;4998548;28;20800;-89
2024/01/31 03:40:09;;;;;;;1.92;0.38;;;6.50;90.90;;;;;;5003104;28;20547;-87
2024/01/31 03:42:35;;;;;;;2.05;0.43;;;6.40;90.80;;;;;;5008659;28;20042;-87
2024/01/31 03:45:03;;;;;;;3.85;0.60;;;6.40;90.80;;;;;;4984024;28;20044;-86
2024/01/31 03:47:29;;;;;;;3.33;0.60;;;6.40;90.80;;;;;;4995983;28;20030;-87
2024/01/31 03:49:55;;;;;;;3.50;1.10;;;6.50;90.80;;;;;;5022262;28;20480;-87
2024/01/31 03:52:22;;;;;;;2.78;0.60;;;6.40;90.80;;;;;;4976833;28;20042;-87
2024/01/31 03:54:48;;;;;;;1.83;0.60;;;6.40;90.80;;;;;;5003104;28;20037;-87
2024/01/31 03:57:13;;;;;;;3.85;0.88;;;6.40;90.80;;;;;;5003133;28;20496;-87
2024/01/31 03:59:39;;;;;;;1.90;0.50;;;6.50;90.80;;;;;;4992474;28;20073;-87
2024/01/31 04:02:05;;;;;;;1.83;0.40;;;6.40;90.80;;;;;;4998248;28;20046;-87
2024/01/31 04:04:31;;;;;;;2.38;0.40;;;6.40;90.80;;;;;;4974911;28;20574;-87
2024/01/31 04:06:57;;;;;;;2.30;0.52;;;6.40;90.80;;;;;;5000408;28;20065;-89
2024/01/31 04:09:22;;;;;;;2.70;0.40;;;6.40;90.80;;;;;;4991612;28;20065;-89
2024/01/31 04:11:48;;;;;;;2.88;0.70;;;6.40;90.70;;;;;;5001830;28;20401;-89
2024/01/31 04:14:13;;;;;;;2.63;0.88;;;6.40;90.70;;;;;;4998940;28;20042;-89
2024/01/31 04:16:39;;;;;;;8.30;1.13;;;7.10;90.80;;;;;;4993285;28;20588;-89
2024/01/31 04:19:06;;;;;;;4.43;0.65;;;6.40;90.60;;;;;;5003007;28;20030;-89
2024/01/31 04:21:32;;;;;;;4.30;0.70;;;6.40;90.60;;;;;;4994352;28;20513;-89
2024/01/31 04:23:57;;;;;;;3.28;1.05;;;6.40;90.50;;;;;;4999774;28;20042;-87
2024/01/31 04:26:23;;;;;;;2.90;0.60;;;6.40;90.50;;;;;;4970084;28;20045;-87
2024/01/31 04:28:48;;;;;;;3.75;0.52;;;6.30;90.50;;;;;;5016950;28;20042;-87
2024/01/31 04:31:14;;;;;;;1.50;0.55;;;6.30;90.40;;;;;;4986009;28;20128;-86
2024/01/31 04:33:41;;;;;;;3.97;0.93;;;6.30;90.40;;;;;;4999367;28;20117;-87
2024/01/31 04:36:07;;;;;;;2.03;0.65;;;6.20;90.30;;;;;;4996519;28;20493;-87
2024/01/31 04:38:33;;;;;;;4.43;0.95;;;6.40;90.40;;;;;;4978297;28;20048;-87
2024/01/31 04:40:58;;;;;;;3.08;0.50;;;6.20;90.40;;;;;;5016496;28;20073;-87
2024/01/31 04:43:24;;;;;;;4.85;0.60;;;6.20;90.40;;;;;;4993654;28;20062;-87
2024/01/31 04:45:50;;;;;;;4.30;1.10;;;6.20;90.40;;;;;;5001915;28;20030;-87
2024/01/31 04:48:15;;;;;;;2.95;0.75;;;6.20;90.50;;;;;;5013872;28;20042;-87
2024/01/31 04:50:41;;;;;;;5.03;0.70;;;6.20;90.50;;;;;;4998649;28;20048;-87
2024/01/31 04:53:06;;;;;;;4.57;0.90;;;6.10;90.60;;;;;;5021162;28;20037;-87
2024/01/31 04:55:32;;;;;;;4.68;0.80;;;6.10;90.60;;;;;;5013940;28;20091;-87
2024/01/31 04:57:58;;;;;;;4.10;1.05;;;6.10;90.70;;;;;;4996962;28;20034;-87
2024/01/31 05:00:24;;;;;;;6.25;0.70;;;6.10;90.90;;;;;;4989256;28;20729;-88
2024/01/31 05:02:50;;;;;;;3.05;0.75;;;6.10;90.80;;;;;;4998868;28;20432;-89
2024/01/31 05:05:16;;;;;;;2.58;0.60;;;6.10;90.80;;;;;;5000260;28;20042;-89
2024/01/31 05:07:41;;;;;;;5.45;0.98;;;6.10;90.80;;;;;;4999417;28;20042;-89
2024/01/31 05:10:08;;;;;;;3.88;0.85;;;6.20;90.90;;;;;;4998289;28;20034;-89
2024/01/31 05:12:34;;;;;;;3.88;1.10;;;6.10;90.90;;;;;;4990438;28;20073;-87
2024/01/31 05:15:00;;;;;;;4.35;1.05;;;6.10;90.90;;;;;;5001851;28;20062;-87
2024/01/31 05:17:26;;;;;;;5.47;1.10;;;6.10;90.90;;;;;;4997123;28;20042;-87
2024/01/31 05:19:52;;;;;;;7.88;0.90;;;6.10;91.00;;;;;;5023648;28;20633;-87
2024/01/31 05:22:18;;;;;;;3.22;0.90;;;6.10;91.00;;;;;;5026029;28;20045;-87
2024/01/31 05:24:44;;;;;;;4.05;1.02;;;6.20;91.00;;;;;;5006996;28;20042;-89
2024/01/31 05:27:10;;;;;;;3.03;1.00;;;6.20;91.00;;;;;;5018797;28;20038;-89
2024/01/31 05:29:36;;;;;;;4.00;0.82;;;6.10;91.00;;;;;;5012076;28;20489;-89
2024/01/31 05:32:03;;;;;;;5.40;1.15;;;6.20;91.00;;;;;;5022279;28;20034;-88
2024/01/31 05:34:29;;;;;;;4.65;0.85;;;6.20;91.00;;;;;;5013419;28;20038;-89
2024/01/31 05:36:54;;;;;;;6.65;1.20;;;6.20;91.00;;;;;;5022962;28;20112;-89
2024/01/31 05:39:20;;;;;;;5.22;1.33;;;6.20;91.00;;;;;;4995292;28;20049;-88
2024/01/31 05:41:46;;;;;;;5.53;1.15;;;6.20;91.00;;;;;;5013746;28;20038;-88
2024/01/31 05:44:12;;;;;;;7.22;1.50;;;6.20;91.00;;;;;;5000229;28;20104;-88
2024/01/31 05:46:38;;;;;;;4.25;1.10;;;6.20;91.00;;;;;;4978874;28;20034;-89
2024/01/31 05:49:04;;;;;;;6.65;1.30;;;6.20;91.00;;;;;;5004693;28;20034;-89
2024/01/31 05:51:29;;;;;;;7.10;1.17;;;6.20;91.00;;;;;;5007075;28;20066;-87
2024/01/31 05:53:55;;;;;;;8.05;1.83;;;6.20;91.00;;;;;;5025367;28;20104;-89
2024/01/31 05:56:21;;;;;;;2.95;1.23;;;6.20;90.90;;;;;;4995979;28;20054;-86
2024/01/31 05:58:47;;;;;;;6.20;1.67;;;6.20;90.90;;;;;;5018205;28;20038;-86
2024/01/31 06:01:13;;;;;;;6.60;1.73;;;6.30;90.90;;;;;;5000954;28;20129;-86
2024/01/31 06:03:38;;;;;;;6.57;1.27;;;6.20;90.90;;;;;;4989428;28;20038;-86
2024/01/31 06:06:06;;;;;;;4.22;1.33;;;6.20;90.90;;;;;;4983003;28;20034;-88
2024/01/31 06:08:32;;;;;;;5.40;1.50;;;6.10;90.90;;;;;;4976592;28;20066;-89
2024/01/31 06:11:03;;;;;;;6.65;1.73;;;6.20;90.90;;;;;;4989119;28;20452;-86
2024/01/31 06:13:29;;;;;;;4.15;1.50;;;6.20;90.90;;;;;;5017906;28;20112;-86
2024/01/31 06:15:55;;;;;;;6.72;1.80;;;6.20;90.90;;;;;;4992060;28;20042;-86
2024/01/31 06:18:22;;;;;;;4.70;1.52;;;6.20;90.90;;;;;;5016675;28;20039;-84
2024/01/31 06:20:49;;;;;;;6.90;1.83;;;6.20;90.80;;;;;;5010946;28;20042;-84
2024/01/31 06:23:14;;;;;;;3.28;1.40;;;6.20;90.80;;;;;;5012388;28;20042;-85
2024/01/31 06:25:40;;;;;;;7.05;2.10;;;6.20;90.80;;;;;;5003241;28;20113;-85
2024/01/31 06:28:06;;;;;;;5.65;1.80;;;6.20;90.80;;;;;;5014981;28;20030;-85
2024/01/31 06:30:40;;;;;;;5.32;1.75;;;6.20;90.70;;;;;;4998572;28;20035;-85
2024/01/31 06:33:07;;;;;;;4.60;2.10;;;6.20;90.70;;;;;;5021677;28;20536;-85
2024/01/31 06:35:36;;;;;;;5.30;1.67;;;6.20;90.70;;;;;;4979082;28;20513;-88
2024/01/31 06:38:02;;;;;;;5.18;1.77;;;6.10;90.60;;;;;;5002863;28;20501;-87
2024/01/31 06:40:28;;;;;;;3.22;1.40;;;6.20;90.60;;;;;;4981354;28;20033;-85
2024/01/31 06:42:54;;;;;;;3.92;1.60;;;6.20;90.50;;;;;;5000229;28;20037;-85
2024/01/31 06:45:20;;;;;;;6.88;1.40;;;6.20;90.50;;;;;;4993440;28;20068;-85
2024/01/31 06:47:45;;;;;;;3.67;1.63;;;6.10;90.30;;;;;;4994072;28;20076;-85
2024/01/31 06:50:12;;;;;;;6.05;1.67;;;6.10;90.30;;;;;;4988499;28;20038;-85
2024/01/31 06:52:38;;;;;;;7.15;2.17;;;6.60;90.40;;;;;;4995220;28;20523;-85
2024/01/31 06:55:03;;;;;;;5.28;1.88;;;6.10;90.20;;;;;;4986262;28;20038;-85
2024/01/31 06:57:30;;;;;;;7.13;1.80;;;6.10;90.10;;;;;;4978576;28;20080;-84
2024/01/31 06:59:56;;;;;;;4.68;1.73;;;6.10;90.10;;;;;;5009804;28;20176;-84
2024/01/31 07:02:21;;;;;;;5.80;1.92;;;6.10;90.10;;;;;;4996987;28;20065;-85
2024/01/31 07:04:47;;;;;;;5.63;1.70;;;6.20;90.10;;;;;;4985008;28;20170;-85
2024/01/31 07:07:13;;;;;;;7.72;2.28;;;6.10;90.00;;;;;;4998199;28;20042;-87
2024/01/31 07:09:39;;;;;;;5.82;1.80;;;6.10;89.90;;;;;;4978343;28;20532;-87
2024/01/31 07:12:05;;;;;;;6.35;2.20;;;6.10;89.90;;;;;;5002564;28;20169;-86
2024/01/31 07:14:31;;;;;;;5.47;1.83;;;6.20;89.80;;;;;;4978503;28;20042;-86
2024/01/31 07:16:56;;;;;;;5.90;1.98;;;6.10;89.80;;;;;;4988048;28;20041;-85
2024/01/31 07:19:22;;;;;;;9.60;2.17;;;6.10;89.70;;;;;;4995261;28;20038;-85
2024/01/31 07:21:48;;;;;;;7.28;2.17;;;6.20;89.80;;;;;;4988584;28;20034;-85
2024/01/31 07:24:13;;;;;;;5.82;2.30;;;6.20;89.70;;;;;;5020138;28;20072;-85
2024/01/31 07:26:39;;;;;;;6.35;2.90;;;6.20;89.70;;;;;;4976897;28;20042;-85
2024/01/31 07:29:08;;;;;;;5.35;2.30;;;6.20;89.60;;;;;;5004322;28;20401;-85
2024/01/31 07:31:34;;;;;;;6.88;2.85;;;6.20;89.50;;;;;;4984964;28;20043;-86
2024/01/31 07:33:59;;;;;;;5.30;2.72;;;6.20;89.40;;;;;;4986947;28;20168;-85
2024/01/31 07:36:25;;;;;;;6.07;3.03;;;6.20;89.20;;;;;;4994865;28;20046;-85
2024/01/31 07:38:50;;;;;;;7.50;3.30;;;6.20;89.00;;;;;;5002916;28;20109;-85
2024/01/31 07:41:16;;;;;;;6.28;3.03;;;6.20;89.00;;;;;;4983811;28;20049;-85
2024/01/31 07:43:42;;;;;;;9.68;3.72;;;6.20;88.80;;;;;;4986380;28;20485;-85
2024/01/31 07:46:08;;;;;;;6.53;3.05;;;6.20;88.70;;;;;;4997403;28;20121;-85
2024/01/31 07:48:34;;;;;;;5.82;3.30;;;6.20;88.70;;;;;;4980865;28;20072;-85
2024/01/31 07:51:04;;;;;;;9.60;3.80;;;6.20;88.70;;;;;;5005009;28;20100;-86
2024/01/31 07:53:30;;;;;;;5.00;3.90;;;6.20;88.80;;;;;;4992891;28;20040;-87
2024/01/31 07:55:56;;;;;;;7.72;4.03;;;6.20;88.80;;;;;;5000438;28;20497;-85
2024/01/31 07:58:21;;;;;;;6.35;3.47;;;6.20;88.70;;;;;;4992747;28;20038;-85
2024/01/31 08:00:47;;;;;;;8.07;3.72;;;6.20;88.60;;;;;;5017231;28;20038;-85
2024/01/31 08:03:13;;;;;;;5.68;3.40;;;6.20;88.50;;;;;;5001623;28;20121;-85
2024/01/31 08:05:38;;;;;;;6.82;3.72;;;6.20;88.40;;;;;;4982842;28;20478;-85
2024/01/31 08:08:04;;;;;;;5.65;3.33;;;6.20;88.30;;;;;;4995520;28;20046;-86
2024/01/31 08:10:30;;;;;;;8.27;3.75;;;6.20;88.30;;;;;;5007377;28;20041;-86
2024/01/31 08:12:55;;;;;;;5.55;3.10;;;6.20;88.20;;;;;;5001834;28;20551;-86
2024/01/31 08:15:21;;;;;;;8.18;3.60;;;6.20;88.30;;;;;;4977433;28;20060;-86
2024/01/31 08:17:47;;;;;;;5.50;2.90;;;6.20;88.10;;;;;;4988131;28;20034;-86
2024/01/31 08:20:13;;;;;;;4.45;2.65;;;6.20;88.00;;;;;;5002223;28;20077;-86
2024/01/31 08:22:39;;;;;;;7.18;3.65;;;6.30;88.00;;;;;;4995871;28;20481;-86
2024/01/31 08:25:05;;;;;;;4.63;3.00;;;6.20;88.00;;;;;;5002532;28;20038;-85
2024/01/31 08:27:31;;;;;;;4.97;2.85;;;6.30;88.00;;;;;;4993411;28;20081;-86
2024/01/31 08:29:56;;;;;;;6.47;3.08;;;6.30;88.10;;;;;;5000571;28;20417;-85
2024/01/31 08:32:22;;;;;;;5.53;2.95;;;6.30;88.10;;;;;;4996279;28;20131;-85
2024/01/31 08:34:48;;;;;;;5.07;3.28;;;6.30;88.00;;;;;;4992260;28;20045;-85
2024/01/31 08:37:14;;;;;;;6.43;3.25;;;6.30;87.90;;;;;;4989416;28;20046;-85
2024/01/31 08:39:41;;;;;;;5.43;3.13;;;6.30;87.90;;;;;;4984069;28;20038;-86
2024/01/31 08:42:07;;;;;;;5.07;3.22;;;6.30;87.90;;;;;;5018051;28;20038;-86
2024/01/31 08:44:33;;;;;;;8.15;3.22;;;6.30;87.90;;;;;;4996526;28;20452;-85
2024/01/31 08:46:58;;;;;;;4.80;2.80;;;6.30;87.90;;;;;;5022352;28;20100;-85
2024/01/31 08:49:24;;;;;;;7.13;3.38;;;6.40;88.30;;;;;;4990296;28;20061;-85
2024/01/31 08:51:51;;;;;;;7.18;3.00;;;6.40;87.70;;;;;;4981835;28;20049;-85
2024/01/31 08:54:17;;;;;;;5.43;2.88;;;6.40;87.70;;;;;;4988816;28;20046;-85
2024/01/31 08:56:42;;;;;;;7.72;3.47;;;6.40;87.60;;;;;;4985596;28;20563;-86
2024/01/31 08:59:08;;;;;;;5.78;3.03;;;6.40;87.60;;;;;;5004179;28;20553;-86
2024/01/31 09:01:33;;;;;;;5.30;3.28;;;6.40;87.50;;;;;;5000104;28;20121;-85
2024/01/31 09:03:59;;;;;;;5.97;3.38;;;6.40;87.50;;;;;;4984237;28;20504;-86
2024/01/31 09:06:24;;;;;;;4.60;3.15;;;6.40;87.30;;;;;;4971188;28;20029;-86
2024/01/31 09:08:50;;;;;;;8.82;3.88;;;6.40;86.90;;;;;;4985220;28;20081;-86
2024/01/31 09:11:16;;;;;;;4.60;3.63;;;6.40;86.40;;;;;;5017395;28;20401;-85
2024/01/31 09:13:42;;;;;;;6.57;3.97;;;6.40;86.40;;;;;;4995774;28;20044;-86
2024/01/31 09:16:08;;;;;;;4.90;3.25;;;6.40;86.40;;;;;;5006152;28;20499;-85
2024/01/31 09:18:34;;;;;;;5.88;3.95;;;6.40;86.30;;;;;;4998352;28;20450;-85
2024/01/31 09:21:00;;;;;;;7.60;4.68;;;6.40;86.10;;;;;;5001339;28;20063;-86
2024/01/31 09:23:25;;;;;;;6.85;4.10;;;6.40;86.50;;;;;;4979309;28;20042;-86
2024/01/31 09:25:51;;;;;;;6.72;3.55;;;6.30;85.90;;;;;;5019219;28;20046;-85
2024/01/31 09:28:19;;;;;;;7.80;4.00;;;6.30;85.80;;;;;;4986077;28;20539;-85
2024/01/31 09:30:44;;;;;;;5.25;3.85;;;6.30;85.70;;;;;;4979506;28;20413;-86
2024/01/31 09:33:10;;;;;;;7.80;3.92;;;6.30;85.70;;;;;;5000520;28;20042;-86
2024/01/31 09:35:36;;;;;;;6.50;4.43;;;6.30;85.80;;;;;;4996736;28;20509;-86
2024/01/31 10:41:59;;;;;;;9.30;6.03;;;5.90;86.70;;;;;;5261258;23;20038;-84
2024/01/31 10:44:25;;;;;;;7.78;5.90;;;6.00;86.80;;;;;;4971238;28;20069;-84
2024/01/31 10:46:50;;;;;;;6.18;5.03;;;5.90;86.80;;;;;;4984233;28;20049;-85
2024/01/31 10:49:16;;;;;;;7.72;5.43;;;6.00;86.90;;;;;;4964322;28;20039;-85
2024/01/31 10:51:55;;;;;;;7.15;5.55;;;6.00;87.00;;;;;;4961742;28;20097;-85
2024/01/31 10:54:25;;;;;;;8.18;5.78;;;6.00;87.00;;;;;;4979097;28;20588;-85
2024/01/31 10:56:51;;;;;;;8.88;5.55;;;6.00;87.20;;;;;;4980070;28;20046;-85
2024/01/31 10:59:17;;;;;;;7.45;5.63;;;6.00;87.20;;;;;;4960773;28;20066;-86
2024/01/31 11:01:55;;;;;;;8.35;5.90;;;6.00;87.30;;;;;;4955805;28;20128;-85
2024/01/31 11:04:22;;;;;;;8.95;5.93;;;6.00;87.20;;;;;;4979763;28;20511;-85
2024/01/31 11:06:51;;;;;;;7.07;6.30;;;6.00;87.30;;;;;;4966200;28;20108;-85
2024/01/31 11:09:24;;;;;;;8.63;6.75;;;6.10;87.30;;;;;;4965458;28;20070;-85
2024/01/31 11:12:03;;;;;;;8.02;6.10;;;6.10;87.30;;;;;;4976915;28;20050;-85
2024/01/31 11:14:30;;;;;;;8.68;6.40;;;6.10;87.20;;;;;;4960165;28;20188;-85
2024/01/31 11:17:06;;;;;;;10.70;7.50;;;6.20;87.30;;;;;;4977388;28;20125;-85
2024/01/31 11:19:38;;;;;;;10.02;7.57;;;6.10;87.20;;;;;;4965455;28;20177;-85
2024/01/31 11:22:04;;;;;;;10.70;8.45;;;6.10;87.40;;;;;;4948320;28;20553;-85
2024/01/31 11:24:30;;;;;;;11.80;8.52;;;6.10;87.60;;;;;;4963792;28;20130;-84
2024/01/31 11:26:55;;;;;;;11.88;9.55;;;6.10;87.60;;;;;;4963348;28;20032;-85
2024/01/31 11:29:22;;;;;;;9.93;8.27;;;6.10;87.70;;;;;;4965532;28;20404;-85
2024/01/31 11:31:48;;;;;;;10.07;8.57;;;6.10;87.80;;;;;;4980431;28;20038;-85
2024/01/31 11:34:13;;;;;;;11.05;8.85;;;6.10;87.80;;;;;;4977340;28;20047;-85
2024/01/31 11:36:39;;;;;;;10.55;9.13;;;6.20;87.80;;;;;;4965357;28;20049;-85
2024/01/31 11:39:05;;;;;;;12.88;9.40;;;6.20;87.90;;;;;;4980554;28;21038;-85
2024/01/31 11:41:30;;;;;;;10.60;9.02;;;6.20;88.00;;;;;;4980436;28;20050;-85
2024/01/31 11:43:56;;;;;;;13.07;9.27;;;6.20;88.00;;;;;;4964787;28;20035;-85
2024/01/31 11:46:22;;;;;;;11.18;9.50;;;6.40;88.00;;;;;;4945441;28;20441;-85
2024/01/31 11:48:48;;;;;;;10.95;9.07;;;6.20;87.90;;;;;;4982575;28;20077;-85
2024/01/31 11:51:13;;;;;;;10.20;9.05;;;6.20;87.90;;;;;;4962477;28;20062;-85
2024/01/31 11:53:39;;;;;;;12.77;9.77;;;6.20;87.90;;;;;;4947269;29;20035;-85
2024/01/31 11:56:06;;;;;;;10.82;9.35;;;6.20;87.90;;;;;;4948019;28;20139;-85
2024/01/31 11:58:31;;;;;;;11.18;10.07;;;6.20;87.90;;;;;;4942264;29;20066;-85
2024/01/31 12:00:57;;;;;;;10.65;9.07;;;6.20;87.90;;;;;;4978427;28;20035;-85
2024/01/31 12:03:23;;;;;;;11.13;9.20;;;6.70;88.10;;;;;;4951077;28;20041;-86
2024/01/31 12:05:57;;;;;;;10.50;8.98;;;6.20;87.50;;;;;;4976174;28;20038;-85
2024/01/31 12:08:26;;;;;;;13.50;8.88;;;6.20;87.40;;;;;;4944166;28;20027;-85
2024/01/31 12:10:53;;;;;;;9.73;8.00;;;6.20;87.40;;;;;;4948292;28;20039;-85
2024/01/31 12:13:19;;;;;;;10.30;8.63;;;6.20;87.20;;;;;;4951653;28;20062;-85
2024/01/31 12:15:46;;;;;;;9.95;8.45;;;6.20;87.10;;;;;;4942709;29;20035;-84
2024/01/31 12:18:13;;;;;;;10.40;8.50;;;6.20;87.10;;;;;;4975727;28;20047;-85
2024/01/31 12:20:39;;;;;;;11.07;8.20;;;6.20;86.90;;;;;;4945648;28;20035;-85
2024/01/31 12:23:04;;;;;;;11.93;8.18;;;6.20;86.80;;;;;;4950390;28;20483;-85
2024/01/31 12:25:30;;;;;;;11.88;8.82;;;6.20;87.00;;;;;;4962460;28;20091;-85
2024/01/31 12:27:56;;;;;;;11.05;7.97;;;6.20;87.60;;;;;;4966608;28;20490;-85
2024/01/31 12:30:22;;;;;;;11.70;8.68;;;6.20;87.30;;;;;;4969088;28;20031;-85
2024/01/31 12:32:47;;;;;;;11.23;8.82;;;6.20;87.40;;;;;;4957565;28;20063;-85
2024/01/31 12:35:13;;;;;;;10.18;8.60;;;6.30;87.50;;;;;;4964721;28;20139;-85
2024/01/31 12:37:39;;;;;;;11.43;8.65;;;6.30;87.60;;;;;;4950736;28;20098;-85
2024/01/31 12:40:07;;;;;;;12.15;9.13;;;6.30;87.70;;;;;;4948458;29;20050;-85
2024/01/31 12:42:33;;;;;;;10.27;8.27;;;6.40;87.80;;;;;;4958303;28;20143;-85
2024/01/31 12:44:58;;;;;;;10.85;8.82;;;6.40;87.80;;;;;;4979338;28;20118;-85
2024/01/31 12:47:24;;;;;;;10.68;8.82;;;6.40;87.80;;;;;;4960664;28;20035;-85
2024/01/31 12:49:50;;;;;;;11.25;9.27;;;6.50;88.00;;;;;;4968251;28;20516;-85
2024/01/31 12:52:16;;;;;;;11.05;9.88;;;6.50;88.00;;;;;;4985718;28;20038;-86
2024/01/31 12:54:41;;;;;;;14.68;10.10;;;6.60;88.00;;;;;;4950207;28;20042;-85
2024/01/31 12:57:07;;;;;;;13.10;9.80;;;6.60;87.90;;;;;;4952947;29;20062;-85
2024/01/31 12:59:33;;;;;;;11.77;9.77;;;6.60;87.80;;;;;;4953103;29;20493;-85
2024/01/31 13:01:59;;;;;;;12.43;10.45;;;6.60;87.80;;;;;;4965684;28;20065;-86
2024/01/31 13:04:25;;;;;;;12.88;9.52;;;7.00;88.00;;;;;;4964428;28;20490;-85
2024/01/31 13:06:50;;;;;;;12.40;9.77;;;6.70;87.80;;;;;;4946344;29;20039;-85
2024/01/31 13:09:16;;;;;;;12.13;9.25;;;6.80;87.80;;;;;;4949058;28;20489;-84
2024/01/31 13:11:41;;;;;;;11.02;8.90;;;6.80;87.70;;;;;;4956415;28;20038;-85
2024/01/31 13:14:07;;;;;;;11.85;9.45;;;6.90;87.70;;;;;;4945486;29;20122;-85
2024/01/31 13:16:34;;;;;;;9.50;8.50;;;6.90;87.70;;;;;;4949699;28;20034;-85
2024/01/31 13:19:00;;;;;;;8.90;7.78;;;6.90;87.60;;;;;;4949949;28;20537;-85
2024/01/31 13:21:27;;;;;;;10.32;7.75;;;7.00;87.60;;;;;;4962697;28;20035;-85
2024/01/31 13:23:55;;;;;;;11.48;8.15;;;7.00;87.60;;;;;;4980577;28;20039;-85
2024/01/31 13:26:22;;;;;;;9.15;7.65;;;7.00;87.50;;;;;;4972575;28;20414;-85
2024/01/31 13:28:47;;;;;;;9.48;7.00;;;7.10;87.40;;;;;;4963883;28;20164;-85
2024/01/31 13:31:13;;;;;;;10.40;7.70;;;7.10;87.30;;;;;;4983055;28;20114;-85
2024/01/31 13:33:39;;;;;;;10.38;7.57;;;7.10;87.30;;;;;;4951581;28;20050;-85
2024/01/31 13:36:06;;;;;;;9.27;7.38;;;7.10;87.30;;;;;;4961265;28;20047;-85
2024/01/31 13:38:32;;;;;;;9.93;7.63;;;7.10;87.20;;;;;;4964430;28;20043;-85
2024/01/31 13:40:58;;;;;;;8.55;7.53;;;7.10;87.00;;;;;;4948026;28;20473;-85
2024/01/31 13:43:23;;;;;;;13.20;8.40;;;7.20;86.90;;;;;;4962964;28;20036;-85
2024/01/31 13:45:49;;;;;;;10.52;7.93;;;7.20;86.70;;;;;;4960969;28;20037;-84
2024/01/31 13:48:14;;;;;;;11.15;9.23;;;7.20;86.50;;;;;;4960262;28;20051;-85
2024/01/31 13:50:40;;;;;;;11.82;9.18;;;7.20;86.20;;;;;;4954728;28;20058;-84
2024/01/31 13:53:05;;;;;;;14.85;9.38;;;7.20;85.80;;;;;;4964784;28;20043;-86